createdAt,value
2023-01-08T09:12:26.626Z,51.10
2023-01-08T09:14:58.384Z,50.00
2023-01-08T09:17:31.666Z,48.60
2023-01-08T09:20:05.847Z,49.30
2023-01-08T09:22:38.798Z,50.20
2023-01-08T09:25:10.490Z,50.40
2023-01-08T09:27:43.863Z,47.90
2023-01-08T09:30:16.170Z,48.10
2023-01-08T09:32:48.143Z,49.90
2023-01-08T09:35:44.226Z,50.40
2023-01-08T09:38:29.996Z,50.70
2023-01-08T09:41:45.558Z,49.50
2023-01-08T09:44:52.950Z,48.70
2023-01-08T09:47:59.249Z,47.60
2023-01-08T09:50:35.631Z,48.40
2023-01-08T09:53:14.509Z,50.20
2023-01-08T09:56:09.102Z,50.40
2023-01-08T09:58:44.573Z,51.20
2023-01-08T10:01:38.069Z,50.00
2023-01-08T10:04:23.311Z,49.70
2023-01-08T10:07:15.013Z,48.60
2023-01-08T10:09:47.727Z,48.10
2023-01-08T10:12:35.742Z,49.00
2023-01-08T10:15:15.171Z,49.50
2023-01-08T10:18:14.521Z,49.30
2023-01-08T10:20:46.824Z,48.10
2023-01-08T10:23:22.879Z,49.00
2023-01-08T10:25:58.696Z,48.60
2023-01-08T10:28:40.923Z,48.80
2023-01-08T10:31:17.592Z,52.00
2023-01-08T10:33:52.977Z,48.40
2023-01-08T10:36:27.823Z,48.70
2023-01-08T10:39:03.971Z,49.80
2023-01-08T10:41:41.190Z,45.50
2023-01-08T10:44:23.775Z,46.00
2023-01-08T10:47:11.767Z,43.20
2023-01-08T10:49:45.639Z,44.20
2023-01-08T10:52:36.929Z,43.90
2023-01-08T10:55:31.824Z,41.80
2023-01-08T10:58:09.852Z,41.50
2023-01-08T11:00:42.238Z,44.20
2023-01-08T11:03:35.627Z,43.80
2023-01-08T11:06:24.332Z,42.90
2023-01-08T11:09:14.321Z,45.50
2023-01-08T11:11:47.195Z,39.20
2023-01-08T11:14:41.106Z,40.10
2023-01-08T11:17:13.741Z,42.70
2023-01-08T11:19:50.659Z,40.60
2023-01-08T11:22:25.483Z,41.40
2023-01-08T11:24:58.407Z,42.10
2023-01-08T11:27:42.939Z,40.30
2023-01-08T11:30:19.774Z,41.90
2023-01-08T11:33:05.411Z,42.80
2023-01-08T11:35:50.219Z,41.50
2023-01-08T11:38:30.480Z,43.10
2023-01-08T11:41:25.574Z,42.10
2023-01-08T11:44:20.787Z,54.50
2023-01-08T11:46:57.303Z,41.20
2023-01-08T11:49:56.554Z,42.80
2023-01-08T11:53:06.319Z,38.20
2023-01-08T11:55:52.956Z,39.90
2023-01-08T11:58:34.743Z,40.10
2023-01-08T12:01:32.860Z,41.40
2023-01-08T12:04:37.417Z,43.40
2023-01-08T12:10:15.322Z,40.20
2023-01-08T12:12:49.850Z,41.10
2023-01-08T12:15:22.234Z,41.90
2023-01-08T12:18:20.503Z,41.60
2023-01-08T12:21:14.441Z,39.80
2023-01-08T12:24:23.714Z,42.00
2023-01-08T12:27:14.414Z,42.30
2023-01-08T12:30:11.783Z,41.20
2023-01-08T12:32:56.851Z,37.90
2023-01-08T12:35:52.667Z,40.90
2023-01-08T12:38:58.591Z,40.10
2023-01-08T12:41:33.924Z,41.20
2023-01-08T12:44:11.609Z,43.80
2023-01-08T12:46:47.748Z,41.00
2023-01-08T12:49:31.485Z,43.00
2023-01-08T12:52:12.556Z,44.20
2023-01-08T12:55:21.079Z,44.90
2023-01-08T12:58:11.078Z,41.30
2023-01-08T13:00:54.395Z,44.20
2023-01-08T13:03:29.970Z,46.60
2023-01-08T13:06:15.668Z,45.70
2023-01-08T13:08:54.106Z,47.40
2023-01-08T13:11:30.797Z,45.00
2023-01-08T13:14:21.613Z,44.30
2023-01-08T13:17:07.816Z,44.60
2023-01-08T13:19:45.523Z,44.40
2023-01-08T13:22:37.731Z,46.30
2023-01-08T13:25:15.425Z,44.60
2023-01-08T13:27:48.115Z,47.00
2023-01-08T13:30:43.166Z,48.90
2023-01-08T13:33:39.991Z,47.70
2023-01-08T13:36:21.086Z,47.20
2023-01-08T13:39:06.361Z,49.90
2023-01-08T13:41:56.736Z,46.60
2023-01-08T13:44:36.954Z,46.00
2023-01-08T13:47:47.111Z,46.10
2023-01-08T13:50:24.294Z,47.60
2023-01-08T13:53:01.085Z,47.00
2023-01-08T13:55:37.347Z,47.00
2023-01-08T13:58:24.524Z,48.10
2023-01-08T14:00:57.872Z,49.70
2023-01-08T14:03:35.805Z,47.60
2023-01-08T14:06:17.129Z,49.20
2023-01-08T14:08:59.128Z,49.40
2023-01-08T14:11:44.886Z,49.00
2023-01-08T14:14:20.077Z,51.20
2023-01-08T14:16:53.548Z,50.90
2023-01-08T14:22:02.029Z,49.80
2023-01-08T14:24:34.503Z,50.40
2023-01-08T14:27:21.269Z,50.50
2023-01-08T14:29:54.014Z,48.20
2023-01-08T14:32:29.427Z,48.70
2023-01-08T14:35:04.219Z,50.80
2023-01-08T14:37:36.152Z,48.40
2023-01-08T14:40:15.893Z,47.30
2023-01-08T14:42:50.555Z,48.70
2023-01-08T14:45:34.511Z,47.40
2023-01-08T14:48:16.861Z,47.70
2023-01-08T14:51:04.814Z,46.00
2023-01-08T14:53:49.737Z,45.00
2023-01-08T14:56:30.452Z,47.30
2023-01-08T14:59:10.227Z,46.00
2023-01-08T15:01:42.367Z,47.80
2023-01-08T15:04:19.065Z,47.40
2023-01-08T15:06:52.886Z,48.20
2023-01-08T15:09:32.463Z,48.30
2023-01-08T15:12:22.730Z,47.80
2023-01-08T15:14:55.511Z,48.40
2023-01-08T15:17:28.883Z,48.00
2023-01-08T15:20:02.063Z,48.40
2023-01-08T15:22:36.584Z,47.10
2023-01-08T15:25:18.026Z,48.40
2023-01-08T15:27:58.881Z,50.20
2023-01-08T15:30:38.348Z,48.90
2023-01-08T15:33:23.256Z,47.20
2023-01-08T15:35:55.005Z,50.00
2023-01-08T15:38:26.617Z,49.40
2023-01-08T15:40:58.298Z,51.00
2023-01-08T15:43:29.967Z,49.10
2023-01-08T15:46:02.107Z,49.20
2023-01-08T15:48:34.095Z,51.60
2023-01-08T15:51:07.379Z,49.50
2023-01-08T15:53:39.115Z,50.70
2023-01-08T15:56:10.654Z,52.10
2023-01-08T15:58:42.466Z,51.10
2023-01-08T16:01:14.686Z,49.00
2023-01-08T16:03:47.550Z,48.30
2023-01-08T16:06:19.370Z,46.70
2023-01-08T16:08:51.383Z,51.30
2023-01-08T16:11:25.790Z,50.70
2023-01-08T16:13:57.641Z,52.50
2023-01-08T16:16:29.867Z,51.40
2023-01-08T16:19:02.003Z,51.70
2023-01-08T16:21:33.734Z,49.90
2023-01-08T16:24:06.305Z,49.80
2023-01-08T16:26:41.128Z,51.50
2023-01-08T16:29:12.803Z,50.00
2023-01-08T16:31:47.390Z,55.20
2023-01-08T16:34:20.151Z,53.80
2023-01-08T16:36:51.929Z,52.30
2023-01-08T16:39:23.926Z,53.20
2023-01-08T16:41:56.576Z,52.00
2023-01-08T16:44:28.811Z,50.80
2023-01-08T16:47:02.956Z,53.60
2023-01-08T16:49:36.262Z,52.20
2023-01-08T16:52:09.795Z,50.10
2023-01-08T16:57:14.237Z,56.50
2023-01-08T16:59:46.171Z,50.40
2023-01-08T17:02:19.462Z,54.90
2023-01-08T17:04:54.475Z,50.80
2023-01-08T17:07:26.261Z,50.30
2023-01-08T17:09:59.430Z,52.10
2023-01-08T17:12:31.302Z,47.00
2023-01-08T17:15:04.924Z,50.70
2023-01-08T17:20:09.459Z,52.00
2023-01-08T17:22:41.295Z,51.90
2023-01-08T17:25:13.347Z,52.40
2023-01-08T17:27:45.177Z,52.90
2023-01-08T17:30:16.938Z,55.60
2023-01-08T17:32:48.735Z,52.70
2023-01-08T17:35:26.112Z,53.20
2023-01-08T17:37:57.807Z,50.40
2023-01-08T17:40:29.537Z,51.70
2023-01-08T17:43:01.286Z,51.60
2023-01-08T17:45:33.096Z,53.00
2023-01-08T17:48:05.838Z,52.60
2023-01-08T17:50:40.145Z,51.30
2023-01-08T17:53:12.115Z,53.80
2023-01-08T17:55:47.376Z,54.40
2023-01-08T17:58:19.839Z,53.70
2023-01-08T18:00:51.615Z,51.60
2023-01-08T18:03:23.550Z,52.50
2023-01-08T18:05:55.731Z,52.30
2023-01-08T18:08:27.574Z,52.10
2023-01-08T18:11:07.664Z,49.80
2023-01-08T18:13:39.707Z,49.70
2023-01-08T18:16:14.319Z,47.80
2023-01-08T18:18:46.179Z,50.60
2023-01-08T18:21:19.194Z,49.70
2023-01-08T18:23:56.709Z,50.30
2023-01-08T18:26:29.426Z,50.20
2023-01-08T18:29:01.338Z,48.60
2023-01-08T18:31:33.123Z,50.70
2023-01-08T18:34:06.722Z,48.30
2023-01-08T18:36:41.526Z,51.00
2023-01-08T18:39:13.550Z,49.50
2023-01-08T18:42:04.584Z,52.00
2023-01-08T18:44:36.772Z,49.10
2023-01-08T18:47:09.163Z,48.70
2023-01-08T18:49:40.861Z,49.10
2023-01-08T18:52:14.203Z,47.90
2023-01-08T18:54:45.912Z,51.40
2023-01-08T18:57:18.896Z,51.20
2023-01-08T18:59:51.747Z,50.50
2023-01-08T19:02:31.638Z,51.70
2023-01-08T19:05:03.991Z,52.00
2023-01-08T19:07:36.413Z,51.00
2023-01-08T19:10:12.591Z,50.40
2023-01-08T19:12:45.137Z,50.80
2023-01-08T19:15:18.028Z,50.40
2023-01-08T19:17:50.521Z,49.00
2023-01-08T19:20:23.093Z,51.60
2023-01-08T19:22:58.061Z,50.00
2023-01-08T19:25:29.827Z,52.10
2023-01-08T19:28:01.810Z,52.80
2023-01-08T19:30:34.444Z,52.00
2023-01-08T19:33:06.364Z,50.80
2023-01-08T19:35:41.737Z,52.90
2023-01-08T19:38:15.070Z,52.40
2023-01-08T19:40:47.032Z,54.80
2023-01-08T19:43:39.064Z,53.30
2023-01-08T19:46:15.672Z,51.20
2023-01-08T19:48:48.823Z,50.70
2023-01-08T19:51:20.872Z,50.30
2023-01-08T19:53:53.631Z,50.90
2023-01-08T19:56:25.889Z,50.60
2023-01-08T19:58:58.869Z,52.10
2023-01-08T20:01:31.017Z,51.10
2023-01-08T20:04:06.237Z,52.50
2023-01-08T20:06:38.167Z,49.80
2023-01-08T20:09:11.795Z,53.10
2023-01-08T20:11:43.805Z,52.10
2023-01-08T20:14:15.717Z,53.80
2023-01-08T20:16:48.415Z,52.40
2023-01-08T20:19:24.010Z,53.40
2023-01-08T20:21:55.925Z,54.20
2023-01-08T20:24:29.069Z,51.80
2023-01-08T20:27:02.197Z,52.20
2023-01-08T20:29:34.696Z,51.50
2023-01-08T20:32:09.197Z,51.50
2023-01-08T20:34:41.638Z,50.80
2023-01-08T20:37:14.229Z,50.30
2023-01-08T20:39:48.385Z,52.30
2023-01-08T20:42:32.998Z,51.50
2023-01-08T20:45:06.743Z,51.10
2023-01-08T20:47:44.851Z,52.00
2023-01-08T20:50:27.086Z,53.00
2023-01-08T20:53:00.150Z,51.60
2023-01-08T20:55:32.489Z,52.30
2023-01-08T20:58:04.354Z,52.80
2023-01-08T21:00:36.341Z,50.80
2023-01-08T21:03:08.381Z,52.10
2023-01-08T21:05:40.249Z,53.00
2023-01-08T21:08:12.235Z,52.00
2023-01-08T21:10:44.116Z,52.60
2023-01-08T21:13:16.084Z,52.60
2023-01-08T21:15:48.621Z,51.60
2023-01-08T21:18:21.416Z,51.90
2023-01-08T21:20:58.397Z,52.50
2023-01-08T21:23:32.284Z,51.70
2023-01-08T21:26:10.279Z,51.80
2023-01-08T21:28:43.428Z,51.40
2023-01-08T21:31:20.455Z,52.00
2023-01-08T21:33:57.925Z,48.60
2023-01-08T21:36:31.803Z,49.40
2023-01-08T21:39:03.799Z,49.30
2023-01-08T21:41:54.143Z,50.50
2023-01-08T21:44:45.521Z,49.40
2023-01-08T21:47:18.891Z,47.60
2023-01-08T21:49:51.017Z,50.80
2023-01-08T21:52:41.595Z,52.30
2023-01-08T21:55:17.660Z,55.20
2023-01-08T21:57:49.435Z,52.80
2023-01-08T22:00:21.567Z,52.50
2023-01-08T22:02:53.162Z,56.20
2023-01-08T22:05:26.135Z,53.50
2023-01-08T22:07:57.873Z,51.70
2023-01-08T22:10:29.508Z,52.40
2023-01-08T22:13:01.976Z,50.30
2023-01-08T22:15:33.941Z,52.40
2023-01-08T22:18:05.728Z,50.50
2023-01-08T22:20:37.557Z,49.30
2023-01-08T22:23:10.135Z,48.40
2023-01-08T22:25:46.056Z,49.40
2023-01-08T22:28:18.336Z,50.00
2023-01-08T22:30:50.115Z,50.10
2023-01-08T22:33:23.548Z,51.20
2023-01-08T22:35:57.166Z,50.20
2023-01-08T22:38:29.180Z,51.60
2023-01-08T22:41:01.371Z,51.30
2023-01-08T22:43:33.202Z,51.50
2023-01-08T22:46:05.611Z,50.30
2023-01-08T22:48:38.459Z,49.40
2023-01-08T22:51:15.350Z,48.60
2023-01-08T22:53:47.001Z,47.90
2023-01-08T22:56:21.326Z,50.60
2023-01-08T22:58:53.457Z,49.40
2023-01-08T23:01:28.357Z,51.50
2023-01-08T23:04:01.680Z,48.80
2023-01-08T23:06:33.770Z,49.30
2023-01-08T23:09:05.425Z,50.20
2023-01-08T23:11:37.293Z,50.60
2023-01-08T23:14:12.934Z,51.00
2023-01-08T23:16:45.470Z,51.40
2023-01-08T23:19:19.628Z,49.70
2023-01-08T23:21:51.468Z,50.50
2023-01-08T23:24:23.392Z,50.70
2023-01-08T23:26:57.864Z,52.20
2023-01-08T23:29:32.591Z,51.70
2023-01-08T23:32:05.392Z,53.10
2023-01-08T23:34:39.526Z,40.00
2023-01-08T23:37:11.392Z,52.70
2023-01-08T23:39:43.442Z,49.20
2023-01-08T23:42:16.093Z,49.60
2023-01-08T23:44:49.683Z,51.70
2023-01-08T23:47:24.215Z,52.10
2023-01-08T23:49:55.979Z,51.20
2023-01-08T23:52:31.771Z,50.40
2023-01-08T23:55:04.457Z,49.00
2023-01-08T23:57:36.475Z,51.70
